sensor_id;sensor_type;location;lat;lon;timestamp;pressure;altitude;pressure_sealevel;temperature;humidity
55592;BME280;41454;53.396;-1.510;2023-10-19T00:02:20;96785.22;;;10.33;100.00
55592;BME280;41454;53.396;-1.510;2023-10-19T00:04:47;96776.82;;;10.63;100.00
55592;BME280;41454;53.396;-1.510;2023-10-19T00:07:15;96770.94;;;10.21;100.00
55592;BME280;41454;53.396;-1.510;2023-10-19T00:09:43;96764.33;;;10.12;100.00
55592;BME280;41454;53.396;-1.510;2023-10-19T00:12:10;96761.77;;;10.53;100.00
55592;BME280;41454;53.396;-1.510;2023-10-19T00:14:37;96757.56;;;9.48;100.00
55592;BME280;41454;53.396;-1.510;2023-10-19T00:17:04;96750.40;;;9.82;100.00
55592;BME280;41454;53.396;-1.510;2023-10-19T00:19:33;96744.11;;;9.85;100.00
55592;BME280;41454;53.396;-1.510;2023-10-19T00:22:00;96740.34;;;10.34;100.00
55592;BME280;41454;53.396;-1.510;2023-10-19T00:24:28;96736.63;;;9.84;100.00
55592;BME280;41454;53.396;-1.510;2023-10-19T00:26:55;96730.85;;;10.00;100.00
55592;BME280;41454;53.396;-1.510;2023-10-19T00:29:23;96727.39;;;9.90;100.00
55592;BME280;41454;53.396;-1.510;2023-10-19T00:31:50;96726.13;;;10.65;100.00
55592;BME280;41454;53.396;-1.510;2023-10-19T00:34:18;96723.34;;;10.65;100.00
55592;BME280;41454;53.396;-1.510;2023-10-19T00:36:45;96724.59;;;10.17;100.00
55592;BME280;41454;53.396;-1.510;2023-10-19T00:39:13;96720.47;;;10.46;100.00
55592;BME280;41454;53.396;-1.510;2023-10-19T00:41:39;96719.38;;;10.29;100.00
55592;BME280;41454;53.396;-1.510;2023-10-19T00:44:06;96718.27;;;11.03;100.00
55592;BME280;41454;53.396;-1.510;2023-10-19T00:46:33;96712.92;;;11.01;100.00
55592;BME280;41454;53.396;-1.510;2023-10-19T00:49:02;96711.15;;;11.41;100.00
55592;BME280;41454;53.396;-1.510;2023-10-19T00:51:31;96706.69;;;11.27;100.00
55592;BME280;41454;53.396;-1.510;2023-10-19T00:54:03;96702.61;;;11.75;100.00
55592;BME280;41454;53.396;-1.510;2023-10-19T00:56:31;96697.96;;;11.78;100.00
55592;BME280;41454;53.396;-1.510;2023-10-19T00:58:58;96693.22;;;12.43;100.00
55592;BME280;41454;53.396;-1.510;2023-10-19T01:01:28;96689.97;;;12.66;100.00
55592;BME280;41454;53.396;-1.510;2023-10-19T01:03:56;96687.65;;;12.27;100.00
55592;BME280;41454;53.396;-1.510;2023-10-19T01:06:24;96682.11;;;12.23;100.00
55592;BME280;41454;53.396;-1.510;2023-10-19T01:08:51;96677.15;;;12.58;100.00
55592;BME280;41454;53.396;-1.510;2023-10-19T01:11:20;96672.66;;;12.55;100.00
55592;BME280;41454;53.396;-1.510;2023-10-19T01:13:47;96670.52;;;12.41;100.00
55592;BME280;41454;53.396;-1.510;2023-10-19T01:16:15;96671.91;;;12.64;100.00
55592;BME280;41454;53.396;-1.510;2023-10-19T01:18:42;96668.77;;;11.60;100.00
55592;BME280;41454;53.396;-1.510;2023-10-19T01:21:09;96667.30;;;12.19;100.00
55592;BME280;41454;53.396;-1.510;2023-10-19T01:23:37;96663.95;;;12.64;100.00
55592;BME280;41454;53.396;-1.510;2023-10-19T01:26:04;96664.13;;;13.37;100.00
55592;BME280;41454;53.396;-1.510;2023-10-19T01:28:33;96663.39;;;13.49;100.00
55592;BME280;41454;53.396;-1.510;2023-10-19T01:31:00;96659.20;;;13.38;100.00
55592;BME280;41454;53.396;-1.510;2023-10-19T01:33:28;96658.90;;;13.46;100.00
55592;BME280;41454;53.396;-1.510;2023-10-19T01:35:55;96656.19;;;13.21;100.00
55592;BME280;41454;53.396;-1.510;2023-10-19T01:38:23;96654.27;;;13.43;100.00
55592;BME280;41454;53.396;-1.510;2023-10-19T01:40:50;96654.04;;;13.37;100.00
55592;BME280;41454;53.396;-1.510;2023-10-19T01:43:18;96648.99;;;13.02;100.00
55592;BME280;41454;53.396;-1.510;2023-10-19T01:45:46;96645.34;;;12.95;100.00
55592;BME280;41454;53.396;-1.510;2023-10-19T01:48:13;96642.69;;;13.52;100.00
55592;BME280;41454;53.396;-1.510;2023-10-19T01:50:40;96637.17;;;12.09;100.00
55592;BME280;41454;53.396;-1.510;2023-10-19T01:53:08;96636.21;;;12.87;100.00
55592;BME280;41454;53.396;-1.510;2023-10-19T01:55:38;96632.93;;;12.70;100.00
55592;BME280;41454;53.396;-1.510;2023-10-19T01:58:05;96638.97;;;12.35;100.00
55592;BME280;41454;53.396;-1.510;2023-10-19T02:00:33;96635.37;;;12.02;100.00
55592;BME280;41454;53.396;-1.510;2023-10-19T02:03:01;96637.75;;;11.57;100.00
55592;BME280;41454;53.396;-1.510;2023-10-19T02:05:28;96635.19;;;11.42;100.00
55592;BME280;41454;53.396;-1.510;2023-10-19T02:07:56;96634.60;;;10.97;100.00
55592;BME280;41454;53.396;-1.510;2023-10-19T02:10:23;96637.17;;;10.90;100.00
55592;BME280;41454;53.396;-1.510;2023-10-19T02:12:51;96634.89;;;10.56;100.00
55592;BME280;41454;53.396;-1.510;2023-10-19T02:15:18;96635.59;;;10.77;100.00
55592;BME280;41454;53.396;-1.510;2023-10-19T02:17:46;96638.56;;;9.71;100.00
55592;BME280;41454;53.396;-1.510;2023-10-19T02:20:14;96641.96;;;10.34;100.00
55592;BME280;41454;53.396;-1.510;2023-10-19T02:22:41;96637.49;;;9.95;100.00
55592;BME280;41454;53.396;-1.510;2023-10-19T02:25:08;96636.48;;;10.90;100.00
55592;BME280;41454;53.396;-1.510;2023-10-19T02:27:36;96637.65;;;10.53;100.00
55592;BME280;41454;53.396;-1.510;2023-10-19T02:30:04;96637.27;;;10.84;100.00
55592;BME280;41454;53.396;-1.510;2023-10-19T02:32:32;96639.01;;;10.51;100.00
55592;BME280;41454;53.396;-1.510;2023-10-19T02:34:59;96640.18;;;11.35;100.00
55592;BME280;41454;53.396;-1.510;2023-10-19T02:37:27;96642.06;;;11.22;100.00
55592;BME280;41454;53.396;-1.510;2023-10-19T02:39:54;96646.26;;;10.84;100.00
55592;BME280;41454;53.396;-1.510;2023-10-19T02:42:22;96646.72;;;10.77;100.00
55592;BME280;41454;53.396;-1.510;2023-10-19T02:44:49;96648.99;;;10.77;100.00
55592;BME280;41454;53.396;-1.510;2023-10-19T02:47:17;96649.91;;;11.07;100.00
55592;BME280;41454;53.396;-1.510;2023-10-19T02:49:44;96652.29;;;11.04;100.00
55592;BME280;41454;53.396;-1.510;2023-10-19T02:52:12;96655.24;;;10.95;100.00
55592;BME280;41454;53.396;-1.510;2023-10-19T02:54:39;96658.29;;;10.65;100.00
55592;BME280;41454;53.396;-1.510;2023-10-19T02:57:07;96660.94;;;11.21;100.00
55592;BME280;41454;53.396;-1.510;2023-10-19T02:59:35;96660.66;;;11.14;100.00
55592;BME280;41454;53.396;-1.510;2023-10-19T03:02:03;96655.97;;;11.81;100.00
55592;BME280;41454;53.396;-1.510;2023-10-19T03:04:30;96653.72;;;11.19;100.00
55592;BME280;41454;53.396;-1.510;2023-10-19T03:07:01;96647.67;;;11.02;100.00
55592;BME280;41454;53.396;-1.510;2023-10-19T03:09:29;96644.78;;;11.33;100.00
55592;BME280;41454;53.396;-1.510;2023-10-19T03:11:57;96644.45;;;11.70;100.00
55592;BME280;41454;53.396;-1.510;2023-10-19T03:14:25;96635.40;;;12.14;100.00
55592;BME280;41454;53.396;-1.510;2023-10-19T03:16:53;96639.31;;;11.74;100.00
55592;BME280;41454;53.396;-1.510;2023-10-19T03:19:20;96634.12;;;11.78;100.00
55592;BME280;41454;53.396;-1.510;2023-10-19T03:21:47;96644.86;;;11.56;100.00
55592;BME280;41454;53.396;-1.510;2023-10-19T03:24:15;96648.41;;;12.28;100.00
55592;BME280;41454;53.396;-1.510;2023-10-19T03:26:42;96642.70;;;11.73;100.00
55592;BME280;41454;53.396;-1.510;2023-10-19T03:29:10;96640.83;;;12.73;100.00
55592;BME280;41454;53.396;-1.510;2023-10-19T03:31:38;96643.04;;;12.49;100.00
55592;BME280;41454;53.396;-1.510;2023-10-19T03:34:05;96650.74;;;12.72;100.00
55592;BME280;41454;53.396;-1.510;2023-10-19T03:36:33;96654.04;;;12.34;100.00
55592;BME280;41454;53.396;-1.510;2023-10-19T03:39:00;96655.09;;;11.39;100.00
55592;BME280;41454;53.396;-1.510;2023-10-19T03:41:27;96657.27;;;11.68;100.00
55592;BME280;41454;53.396;-1.510;2023-10-19T03:43:55;96652.67;;;11.18;100.00
55592;BME280;41454;53.396;-1.510;2023-10-19T03:46:23;96661.71;;;10.30;100.00
55592;BME280;41454;53.396;-1.510;2023-10-19T03:48:50;96652.17;;;10.51;100.00
55592;BME280;41454;53.396;-1.510;2023-10-19T03:51:17;96653.37;;;10.76;100.00
55592;BME280;41454;53.396;-1.510;2023-10-19T03:53:44;96659.48;;;10.55;100.00
55592;BME280;41454;53.396;-1.510;2023-10-19T03:56:12;96659.21;;;10.31;100.00
55592;BME280;41454;53.396;-1.510;2023-10-19T03:58:38;96652.79;;;9.98;100.00
55592;BME280;41454;53.396;-1.510;2023-10-19T04:01:06;96657.72;;;10.87;100.00
55592;BME280;41454;53.396;-1.510;2023-10-19T04:03:33;96662.13;;;11.01;100.00
55592;BME280;41454;53.396;-1.510;2023-10-19T04:06:00;96665.82;;;11.12;100.00
55592;BME280;41454;53.396;-1.510;2023-10-19T04:08:28;96667.72;;;10.69;100.00
55592;BME280;41454;53.396;-1.510;2023-10-19T04:10:55;96671.65;;;10.23;100.00
55592;BME280;41454;53.396;-1.510;2023-10-19T04:13:23;96669.55;;;10.69;100.00
55592;BME280;41454;53.396;-1.510;2023-10-19T04:15:50;96676.98;;;10.64;100.00
55592;BME280;41454;53.396;-1.510;2023-10-19T04:18:18;96668.80;;;10.73;100.00
55592;BME280;41454;53.396;-1.510;2023-10-19T04:20:44;96670.63;;;10.00;100.00
55592;BME280;41454;53.396;-1.510;2023-10-19T04:23:11;96666.60;;;10.27;100.00
55592;BME280;41454;53.396;-1.510;2023-10-19T04:25:38;96670.61;;;10.06;100.00
55592;BME280;41454;53.396;-1.510;2023-10-19T04:28:05;96674.73;;;10.20;100.00
55592;BME280;41454;53.396;-1.510;2023-10-19T04:30:33;96676.61;;;10.28;100.00
55592;BME280;41454;53.396;-1.510;2023-10-19T04:33:00;96684.44;;;10.49;100.00
55592;BME280;41454;53.396;-1.510;2023-10-19T04:35:27;96688.26;;;10.36;100.00
55592;BME280;41454;53.396;-1.510;2023-10-19T04:37:55;96693.16;;;10.71;100.00
55592;BME280;41454;53.396;-1.510;2023-10-19T04:40:23;96697.93;;;10.99;100.00
55592;BME280;41454;53.396;-1.510;2023-10-19T04:42:50;96700.40;;;11.22;100.00
55592;BME280;41454;53.396;-1.510;2023-10-19T04:45:18;96702.86;;;11.02;100.00
55592;BME280;41454;53.396;-1.510;2023-10-19T04:47:45;96708.90;;;10.89;100.00
55592;BME280;41454;53.396;-1.510;2023-10-19T04:50:13;96700.64;;;11.18;100.00
55592;BME280;41454;53.396;-1.510;2023-10-19T04:52:40;96698.97;;;10.72;100.00
55592;BME280;41454;53.396;-1.510;2023-10-19T04:55:08;96700.05;;;11.36;100.00
55592;BME280;41454;53.396;-1.510;2023-10-19T04:57:36;96700.45;;;11.21;100.00
55592;BME280;41454;53.396;-1.510;2023-10-19T05:00:03;96704.92;;;11.39;100.00
55592;BME280;41454;53.396;-1.510;2023-10-19T05:02:30;96703.95;;;11.47;100.00
55592;BME280;41454;53.396;-1.510;2023-10-19T05:04:58;96708.65;;;11.60;100.00
55592;BME280;41454;53.396;-1.510;2023-10-19T05:07:25;96706.90;;;11.39;100.00
55592;BME280;41454;53.396;-1.510;2023-10-19T05:09:53;96704.50;;;11.91;100.00
55592;BME280;41454;53.396;-1.510;2023-10-19T05:12:20;96695.96;;;12.41;100.00
55592;BME280;41454;53.396;-1.510;2023-10-19T05:14:48;96709.43;;;12.52;100.00
55592;BME280;41454;53.396;-1.510;2023-10-19T05:17:15;96707.33;;;12.11;100.00
55592;BME280;41454;53.396;-1.510;2023-10-19T05:19:43;96708.40;;;12.31;100.00
55592;BME280;41454;53.396;-1.510;2023-10-19T05:22:11;96710.71;;;12.62;100.00
55592;BME280;41454;53.396;-1.510;2023-10-19T05:24:38;96716.00;;;12.08;100.00
55592;BME280;41454;53.396;-1.510;2023-10-19T05:27:05;96714.54;;;13.36;100.00
55592;BME280;41454;53.396;-1.510;2023-10-19T05:29:32;96720.88;;;12.63;100.00
55592;BME280;41454;53.396;-1.510;2023-10-19T05:31:59;96731.25;;;11.34;100.00
55592;BME280;41454;53.396;-1.510;2023-10-19T05:34:26;96734.53;;;11.67;100.00
55592;BME280;41454;53.396;-1.510;2023-10-19T05:36:54;96733.60;;;11.36;100.00
55592;BME280;41454;53.396;-1.510;2023-10-19T05:39:21;96734.00;;;11.86;100.00
55592;BME280;41454;53.396;-1.510;2023-10-19T05:41:49;96730.49;;;10.79;100.00
55592;BME280;41454;53.396;-1.510;2023-10-19T05:44:16;96730.22;;;11.65;100.00
55592;BME280;41454;53.396;-1.510;2023-10-19T05:46:43;96730.83;;;11.35;100.00
55592;BME280;41454;53.396;-1.510;2023-10-19T05:49:11;96739.56;;;10.96;100.00
55592;BME280;41454;53.396;-1.510;2023-10-19T05:51:39;96731.23;;;11.08;100.00
55592;BME280;41454;53.396;-1.510;2023-10-19T05:54:06;96741.03;;;11.20;100.00
55592;BME280;41454;53.396;-1.510;2023-10-19T05:56:34;96740.14;;;11.18;100.00
55592;BME280;41454;53.396;-1.510;2023-10-19T05:59:01;96735.62;;;10.75;100.00
55592;BME280;41454;53.396;-1.510;2023-10-19T06:01:28;96733.73;;;11.12;100.00
55592;BME280;41454;53.396;-1.510;2023-10-19T06:03:56;96731.85;;;11.07;100.00
55592;BME280;41454;53.396;-1.510;2023-10-19T06:06:24;96735.70;;;11.06;100.00
55592;BME280;41454;53.396;-1.510;2023-10-19T06:08:51;96738.36;;;10.66;100.00
55592;BME280;41454;53.396;-1.510;2023-10-19T06:11:19;96732.94;;;10.79;100.00
55592;BME280;41454;53.396;-1.510;2023-10-19T06:13:46;96734.06;;;10.70;100.00
55592;BME280;41454;53.396;-1.510;2023-10-19T06:16:14;96738.32;;;11.10;100.00
55592;BME280;41454;53.396;-1.510;2023-10-19T06:18:42;96735.40;;;10.97;100.00
55592;BME280;41454;53.396;-1.510;2023-10-19T06:21:09;96740.00;;;11.17;100.00
55592;BME280;41454;53.396;-1.510;2023-10-19T06:23:36;96736.12;;;11.22;100.00
55592;BME280;41454;53.396;-1.510;2023-10-19T06:26:09;96739.36;;;11.06;100.00
55592;BME280;41454;53.396;-1.510;2023-10-19T06:28:37;96739.69;;;10.77;100.00
55592;BME280;41454;53.396;-1.510;2023-10-19T06:31:04;96744.15;;;10.84;100.00
55592;BME280;41454;53.396;-1.510;2023-10-19T06:33:31;96745.43;;;11.12;100.00
55592;BME280;41454;53.396;-1.510;2023-10-19T06:36:03;96748.81;;;10.88;100.00
55592;BME280;41454;53.396;-1.510;2023-10-19T06:38:32;96755.15;;;11.22;100.00
55592;BME280;41454;53.396;-1.510;2023-10-19T06:40:59;96758.71;;;11.45;100.00
55592;BME280;41454;53.396;-1.510;2023-10-19T06:43:27;96758.94;;;11.65;100.00
55592;BME280;41454;53.396;-1.510;2023-10-19T06:46:02;96761.41;;;11.55;100.00
55592;BME280;41454;53.396;-1.510;2023-10-19T06:48:29;96767.29;;;11.54;100.00
55592;BME280;41454;53.396;-1.510;2023-10-19T06:50:56;96773.40;;;11.30;100.00
55592;BME280;41454;53.396;-1.510;2023-10-19T06:53:24;96771.67;;;11.48;100.00
55592;BME280;41454;53.396;-1.510;2023-10-19T06:55:52;96773.70;;;11.62;100.00
55592;BME280;41454;53.396;-1.510;2023-10-19T06:58:19;96771.98;;;12.20;100.00
55592;BME280;41454;53.396;-1.510;2023-10-19T07:00:46;96767.80;;;12.81;100.00
55592;BME280;41454;53.396;-1.510;2023-10-19T07:03:14;96768.60;;;13.00;100.00
55592;BME280;41454;53.396;-1.510;2023-10-19T07:05:41;96766.87;;;12.91;100.00
55592;BME280;41454;53.396;-1.510;2023-10-19T07:08:08;96764.05;;;13.04;100.00
55592;BME280;41454;53.396;-1.510;2023-10-19T07:10:35;96760.57;;;12.88;100.00
55592;BME280;41454;53.396;-1.510;2023-10-19T07:13:03;96764.59;;;12.67;100.00
55592;BME280;41454;53.396;-1.510;2023-10-19T07:15:31;96760.76;;;13.45;100.00
55592;BME280;41454;53.396;-1.510;2023-10-19T07:17:58;96763.03;;;13.45;100.00
55592;BME280;41454;53.396;-1.510;2023-10-19T07:20:26;96764.07;;;13.52;100.00
55592;BME280;41454;53.396;-1.510;2023-10-19T07:22:54;96766.42;;;13.58;100.00
55592;BME280;41454;53.396;-1.510;2023-10-19T07:25:21;96770.05;;;13.61;100.00
55592;BME280;41454;53.396;-1.510;2023-10-19T07:27:49;96771.89;;;13.47;100.00
55592;BME280;41454;53.396;-1.510;2023-10-19T07:30:16;96770.35;;;14.01;100.00
55592;BME280;41454;53.396;-1.510;2023-10-19T07:32:43;96775.64;;;13.25;100.00
55592;BME280;41454;53.396;-1.510;2023-10-19T07:35:11;96772.90;;;13.94;100.00
55592;BME280;41454;53.396;-1.510;2023-10-19T07:37:38;96774.39;;;13.52;100.00
55592;BME280;41454;53.396;-1.510;2023-10-19T07:40:06;96777.21;;;13.87;100.00
55592;BME280;41454;53.396;-1.510;2023-10-19T07:42:34;96781.03;;;13.70;100.00
55592;BME280;41454;53.396;-1.510;2023-10-19T07:45:01;96778.53;;;13.96;100.00
55592;BME280;41454;53.396;-1.510;2023-10-19T07:47:28;96775.05;;;14.12;100.00
55592;BME280;41454;53.396;-1.510;2023-10-19T07:49:56;96775.51;;;13.87;100.00
55592;BME280;41454;53.396;-1.510;2023-10-19T07:52:23;96775.72;;;14.08;100.00
55592;BME280;41454;53.396;-1.510;2023-10-19T07:54:51;96778.10;;;14.46;100.00
55592;BME280;41454;53.396;-1.510;2023-10-19T07:57:18;96776.06;;;13.57;100.00
55592;BME280;41454;53.396;-1.510;2023-10-19T07:59:46;96773.10;;;12.86;100.00
55592;BME280;41454;53.396;-1.510;2023-10-19T08:02:14;96774.42;;;12.78;100.00
55592;BME280;41454;53.396;-1.510;2023-10-19T08:04:41;96773.74;;;13.08;100.00
55592;BME280;41454;53.396;-1.510;2023-10-19T08:07:09;96772.29;;;13.55;100.00
55592;BME280;41454;53.396;-1.510;2023-10-19T08:09:36;96770.62;;;13.60;100.00
55592;BME280;41454;53.396;-1.510;2023-10-19T08:12:03;96775.12;;;13.38;100.00
55592;BME280;41454;53.396;-1.510;2023-10-19T08:14:30;96773.53;;;14.18;100.00
55592;BME280;41454;53.396;-1.510;2023-10-19T08:16:58;96774.48;;;14.42;100.00
55592;BME280;41454;53.396;-1.510;2023-10-19T08:19:27;96775.12;;;14.22;100.00
55592;BME280;41454;53.396;-1.510;2023-10-19T08:21:54;96776.36;;;13.55;100.00
55592;BME280;41454;53.396;-1.510;2023-10-19T08:24:21;96774.90;;;13.80;100.00
55592;BME280;41454;53.396;-1.510;2023-10-19T08:26:49;96774.45;;;13.30;100.00
55592;BME280;41454;53.396;-1.510;2023-10-19T08:29:16;96774.00;;;14.00;100.00
55592;BME280;41454;53.396;-1.510;2023-10-19T08:31:44;96775.55;;;13.90;100.00
55592;BME280;41454;53.396;-1.510;2023-10-19T08:34:11;96776.31;;;13.91;100.00
55592;BME280;41454;53.396;-1.510;2023-10-19T08:36:39;96776.99;;;14.16;100.00
55592;BME280;41454;53.396;-1.510;2023-10-19T08:39:09;96776.79;;;14.10;100.00
55592;BME280;41454;53.396;-1.510;2023-10-19T08:41:37;96776.21;;;14.19;100.00
55592;BME280;41454;53.396;-1.510;2023-10-19T08:44:07;96777.00;;;14.70;100.00
55592;BME280;41454;53.396;-1.510;2023-10-19T08:46:35;96774.19;;;14.41;100.00
55592;BME280;41454;53.396;-1.510;2023-10-19T08:49:02;96772.00;;;14.09;100.00
55592;BME280;41454;53.396;-1.510;2023-10-19T08:51:29;96774.75;;;14.35;100.00
55592;BME280;41454;53.396;-1.510;2023-10-19T08:53:57;96771.66;;;14.46;100.00
55592;BME280;41454;53.396;-1.510;2023-10-19T08:56:24;96770.57;;;14.11;100.00
55592;BME280;41454;53.396;-1.510;2023-10-19T08:58:51;96775.91;;;14.26;100.00
55592;BME280;41454;53.396;-1.510;2023-10-19T09:01:19;96779.26;;;14.53;100.00
55592;BME280;41454;53.396;-1.510;2023-10-19T09:03:46;96781.48;;;13.99;100.00
55592;BME280;41454;53.396;-1.510;2023-10-19T09:06:14;96781.58;;;14.64;100.00
55592;BME280;41454;53.396;-1.510;2023-10-19T09:08:41;96783.20;;;14.28;100.00
55592;BME280;41454;53.396;-1.510;2023-10-19T09:11:09;96786.30;;;15.16;100.00
55592;BME280;41454;53.396;-1.510;2023-10-19T09:13:43;96785.83;;;14.27;100.00
55592;BME280;41454;53.396;-1.510;2023-10-19T09:16:11;96782.20;;;14.95;100.00
55592;BME280;41454;53.396;-1.510;2023-10-19T09:18:38;96783.53;;;14.33;100.00
55592;BME280;41454;53.396;-1.510;2023-10-19T09:21:07;96786.66;;;14.59;100.00
55592;BME280;41454;53.396;-1.510;2023-10-19T09:23:35;96784.82;;;14.88;100.00
55592;BME280;41454;53.396;-1.510;2023-10-19T09:26:03;96785.93;;;15.76;100.00
55592;BME280;41454;53.396;-1.510;2023-10-19T09:28:31;96788.48;;;14.95;100.00
55592;BME280;41454;53.396;-1.510;2023-10-19T09:31:01;96791.98;;;14.56;100.00
55592;BME280;41454;53.396;-1.510;2023-10-19T09:33:28;96791.54;;;14.67;100.00
55592;BME280;41454;53.396;-1.510;2023-10-19T09:36:00;96789.46;;;15.98;100.00
55592;BME280;41454;53.396;-1.510;2023-10-19T09:38:27;96788.34;;;15.15;100.00
55592;BME280;41454;53.396;-1.510;2023-10-19T09:40:55;96788.62;;;15.26;100.00
55592;BME280;41454;53.396;-1.510;2023-10-19T09:43:30;96790.71;;;15.69;100.00
55592;BME280;41454;53.396;-1.510;2023-10-19T09:46:06;96793.31;;;15.38;100.00
55592;BME280;41454;53.396;-1.510;2023-10-19T09:48:39;96796.00;;;15.90;100.00
55592;BME280;41454;53.396;-1.510;2023-10-19T09:51:07;96797.23;;;15.82;100.00
55592;BME280;41454;53.396;-1.510;2023-10-19T09:53:36;96799.90;;;15.50;100.00
55592;BME280;41454;53.396;-1.510;2023-10-19T09:56:06;96805.83;;;16.47;100.00
55592;BME280;41454;53.396;-1.510;2023-10-19T09:58:40;96805.87;;;16.42;100.00
55592;BME280;41454;53.396;-1.510;2023-10-19T10:01:08;96804.41;;;16.84;100.00
55592;BME280;41454;53.396;-1.510;2023-10-19T10:03:43;96803.93;;;16.33;100.00
55592;BME280;41454;53.396;-1.510;2023-10-19T10:06:10;96806.56;;;16.75;100.00
55592;BME280;41454;53.396;-1.510;2023-10-19T10:08:39;96810.03;;;17.00;100.00
55592;BME280;41454;53.396;-1.510;2023-10-19T10:11:17;96812.88;;;16.70;100.00
55592;BME280;41454;53.396;-1.510;2023-10-19T10:13:45;96810.31;;;16.05;100.00
55592;BME280;41454;53.396;-1.510;2023-10-19T10:16:13;96817.48;;;16.43;100.00
55592;BME280;41454;53.396;-1.510;2023-10-19T10:18:41;96813.43;;;15.20;100.00
55592;BME280;41454;53.396;-1.510;2023-10-19T10:21:12;96820.75;;;16.79;100.00
55592;BME280;41454;53.396;-1.510;2023-10-19T10:23:41;96821.34;;;15.83;100.00
55592;BME280;41454;53.396;-1.510;2023-10-19T10:26:09;96822.35;;;15.52;100.00
55592;BME280;41454;53.396;-1.510;2023-10-19T10:28:38;96824.49;;;15.25;100.00
55592;BME280;41454;53.396;-1.510;2023-10-19T10:31:08;96822.74;;;16.30;100.00
55592;BME280;41454;53.396;-1.510;2023-10-19T10:33:39;96821.33;;;16.14;100.00
55592;BME280;41454;53.396;-1.510;2023-10-19T10:36:07;96824.98;;;16.79;100.00
55592;BME280;41454;53.396;-1.510;2023-10-19T10:38:35;96826.85;;;16.13;100.00
55592;BME280;41454;53.396;-1.510;2023-10-19T10:41:03;96826.23;;;16.11;100.00
55592;BME280;41454;53.396;-1.510;2023-10-19T10:43:31;96829.01;;;15.72;100.00
55592;BME280;41454;53.396;-1.510;2023-10-19T10:46:06;96831.65;;;15.52;100.00
55592;BME280;41454;53.396;-1.510;2023-10-19T10:48:33;96829.68;;;15.76;100.00
55592;BME280;41454;53.396;-1.510;2023-10-19T10:51:01;96834.47;;;15.53;100.00
55592;BME280;41454;53.396;-1.510;2023-10-19T10:53:29;96833.65;;;16.31;100.00
55592;BME280;41454;53.396;-1.510;2023-10-19T10:56:00;96836.74;;;15.47;100.00
55592;BME280;41454;53.396;-1.510;2023-10-19T10:58:27;96837.45;;;15.67;100.00
55592;BME280;41454;53.396;-1.510;2023-10-19T11:00:55;96836.89;;;15.19;100.00
55592;BME280;41454;53.396;-1.510;2023-10-19T11:03:22;96841.56;;;15.63;100.00
55592;BME280;41454;53.396;-1.510;2023-10-19T11:05:49;96839.79;;;15.64;100.00
55592;BME280;41454;53.396;-1.510;2023-10-19T11:08:16;96844.61;;;15.94;100.00
55592;BME280;41454;53.396;-1.510;2023-10-19T11:10:45;96844.33;;;15.86;100.00
55592;BME280;41454;53.396;-1.510;2023-10-19T11:13:14;96842.43;;;15.48;100.00
55592;BME280;41454;53.396;-1.510;2023-10-19T11:15:48;96843.76;;;14.95;100.00
55592;BME280;41454;53.396;-1.510;2023-10-19T11:18:28;96844.07;;;17.06;100.00
55592;BME280;41454;53.396;-1.510;2023-10-19T11:20:56;96848.01;;;17.39;100.00
55592;BME280;41454;53.396;-1.510;2023-10-19T11:23:36;96846.52;;;17.75;100.00
55592;BME280;41454;53.396;-1.510;2023-10-19T11:26:03;96850.27;;;16.44;100.00
55592;BME280;41454;53.396;-1.510;2023-10-19T11:28:31;96845.66;;;16.13;100.00
55592;BME280;41454;53.396;-1.510;2023-10-19T11:31:11;96842.76;;;16.18;100.00
55592;BME280;41454;53.396;-1.510;2023-10-19T11:33:38;96844.77;;;15.37;100.00
55592;BME280;41454;53.396;-1.510;2023-10-19T11:36:05;96843.12;;;16.26;100.00
55592;BME280;41454;53.396;-1.510;2023-10-19T11:38:33;96842.02;;;16.96;100.00
55592;BME280;41454;53.396;-1.510;2023-10-19T11:41:00;96845.87;;;16.09;100.00
55592;BME280;41454;53.396;-1.510;2023-10-19T11:43:28;96841.93;;;15.98;100.00
55592;BME280;41454;53.396;-1.510;2023-10-19T11:45:54;96837.22;;;16.39;100.00
55592;BME280;41454;53.396;-1.510;2023-10-19T11:48:22;96833.09;;;16.48;100.00
55592;BME280;41454;53.396;-1.510;2023-10-19T11:50:49;96833.11;;;16.33;100.00
55592;BME280;41454;53.396;-1.510;2023-10-19T11:53:17;96831.79;;;16.25;100.00
55592;BME280;41454;53.396;-1.510;2023-10-19T11:55:44;96831.38;;;16.27;100.00
55592;BME280;41454;53.396;-1.510;2023-10-19T11:58:11;96836.04;;;16.74;100.00
55592;BME280;41454;53.396;-1.510;2023-10-19T12:00:39;96834.15;;;15.70;100.00
55592;BME280;41454;53.396;-1.510;2023-10-19T12:03:06;96836.56;;;15.73;100.00
55592;BME280;41454;53.396;-1.510;2023-10-19T12:05:34;96840.49;;;16.23;100.00
55592;BME280;41454;53.396;-1.510;2023-10-19T12:08:01;96836.98;;;17.08;100.00
55592;BME280;41454;53.396;-1.510;2023-10-19T12:10:28;96838.95;;;16.29;100.00
55592;BME280;41454;53.396;-1.510;2023-10-19T12:12:56;96840.06;;;15.87;100.00
55592;BME280;41454;53.396;-1.510;2023-10-19T12:15:23;96838.02;;;15.90;100.00
55592;BME280;41454;53.396;-1.510;2023-10-19T12:17:50;96839.06;;;16.26;100.00
55592;BME280;41454;53.396;-1.510;2023-10-19T12:20:18;96838.76;;;16.16;100.00
55592;BME280;41454;53.396;-1.510;2023-10-19T12:22:45;96838.65;;;15.86;100.00
55592;BME280;41454;53.396;-1.510;2023-10-19T12:25:13;96835.31;;;16.92;100.00
55592;BME280;41454;53.396;-1.510;2023-10-19T12:27:41;96832.13;;;16.45;100.00
55592;BME280;41454;53.396;-1.510;2023-10-19T12:30:09;96830.90;;;17.06;100.00
55592;BME280;41454;53.396;-1.510;2023-10-19T12:32:36;96831.99;;;16.35;100.00
55592;BME280;41454;53.396;-1.510;2023-10-19T12:35:04;96831.98;;;16.47;100.00
55592;BME280;41454;53.396;-1.510;2023-10-19T12:37:31;96826.24;;;17.07;100.00
55592;BME280;41454;53.396;-1.510;2023-10-19T12:39:59;96824.36;;;17.30;100.00
55592;BME280;41454;53.396;-1.510;2023-10-19T12:42:28;96820.56;;;16.99;100.00
55592;BME280;41454;53.396;-1.510;2023-10-19T12:44:55;96821.45;;;17.06;100.00